LFMNLFMD

Guest
Details From LFMN - Nice/Cote d'Azur
To LFMD - Mandelieu
Flight Number -
Tags generated
Created
Modified
Stats Distance 13 nm / 24 km
Max Altitude 0 ft / 0 m
Waypoints 2
Social Downloads 0
Likes 0
Share VATSIM

Download

Looking for another format? Having issues loading an existing format? Contact us
Advertisement - Login to hide

Notes

Basic altitude profile: - Ascent Rate: 2500ft/min - Ascent Speed: 250kts - Cruise Altitude: 25000ft - Cruise Speed: 300kts - Descent Rate: 1500ft/min - Descent Speed: 150kts Options: - Use NATs: yes - Use PACOTS: yes - Use low airways: yes - Use high airways: yes

Route

LFMN LFMD

ID Type Via Altitude Latitude Longitude Leg Dist Tot Dist Heading (true) Name
O LFMN APT - 0 ft / 0 m 43.65798˚ 7.21536˚ - 0 nm - Nice/Cote d'Azur
O LFMD APT - 0 ft / 0 m 43.54673˚ 6.95310˚ 13 nm 13 nm 240° / 240° Mandelieu

Altitude Profile

Advertisement - Login to hide

LFMN

Details ICAO LFMN (NCE)
Name Nice/Cote d'Azur
Region France
Timezone Unknown (UTC+0.0)
Stats Elevation 12 ft / 4 m (AMSL)
Location 43.657981° 7.215362°
Runways 2
Magnetic Variation 2.016° E

METAR

LFMN 131100Z 26007KT 230V300 9999 FEW033 11/00 Q1017 NOSIG

Decode

TAF

TAF LFMN 130800Z 1309/1415 VRB03KT CAVOK BECMG 1310/1312 20008KT BECMG 1315/1317 24010G25KT

Decode

Departure Runways

ID Width Length Bearing (true) Bearing (mag) Surface Threshold Offset Overrun Length
04L 148 ft / 45 m 8,427 ft / 2,569 m 44.85° 42.83° Asphalt 0 ft / 0 m 131 ft / 40 m
04R 148 ft / 45 m 9,720 ft / 2,963 m 44.60° 42.58° Asphalt 0 ft / 0 m 427 ft / 130 m
22L 148 ft / 45 m 9,720 ft / 2,963 m 224.62° 222.60° Asphalt 0 ft / 0 m 525 ft / 160 m
22R 148 ft / 45 m 8,427 ft / 2,569 m 224.87° 222.85° Asphalt 0 ft / 0 m 492 ft / 150 m

LFMD

Details ICAO LFMD (CEQ)
Name Mandelieu
Region France
Timezone Europe/Paris (UTC+1.0)
Stats Elevation 12 ft / 4 m (AMSL)
Location 43.546734° 6.953097°
Runways 3
Magnetic Variation 1.956° E

METAR

LFMD 131100Z AUTO 00000KT CAVOK 11/M02 Q1018 BECMG 25015G30KT

Decode

TAF

TAF LFMD 130800Z 1309/1409 VRB03KT CAVOK BECMG 1310/1312 25010KT BECMG 1312/1314 25015G30KT

Decode

Destination Runways

ID Width Length Bearing (true) Bearing (mag) Surface Threshold Offset Overrun Length
05 98 ft / 30 m 2,430 ft / 741 m 45.28° 43.32° Asphalt 295 ft / 90 m 0 ft / 0 m
17 148 ft / 45 m 5,287 ft / 1,611 m 172.58° 170.62° Asphalt 689 ft / 210 m 0 ft / 0 m
17L 164 ft / 50 m 1,872 ft / 571 m 172.60° 170.64° Grass 0 ft / 0 m 0 ft / 0 m
23 98 ft / 30 m 2,430 ft / 741 m 225.28° 223.32° Asphalt 98 ft / 30 m 0 ft / 0 m
35 148 ft / 45 m 5,287 ft / 1,611 m 352.58° 350.62° Asphalt 1,148 ft / 350 m 0 ft / 0 m
35R 164 ft / 50 m 1,872 ft / 571 m 352.60° 350.64° Grass 0 ft / 0 m 0 ft / 0 m

Approach Navaids

Runway Type Ident Frequency Range Bearing (true) Bearing (mag) Slope Elevation
35 Localiser CMD 110.35 MHz 18 nm / 33 km 347.58° 345.63° - 12 ft / 4 m (AMSL)

Popular Alternatives